createdAt,value
2022-11-28T00:00:06.847Z,54.83
2022-11-28T00:03:35.668Z,54.90
2022-11-28T00:06:40.821Z,55.00
2022-11-28T00:09:43.229Z,54.89
2022-11-28T00:12:45.351Z,54.91
2022-11-28T00:16:07.037Z,54.94
2022-11-28T00:19:09.453Z,54.91
2022-11-28T00:22:12.129Z,55.04
2022-11-28T00:25:14.357Z,55.15
2022-11-28T00:28:16.662Z,55.33
2022-11-28T00:31:21.942Z,55.55
2022-11-28T00:34:24.391Z,55.67
2022-11-28T00:37:26.334Z,55.82
2022-11-28T00:40:29.032Z,55.97
2022-11-28T00:43:31.403Z,56.06
2022-11-28T00:46:34.031Z,56.20
2022-11-28T00:49:36.212Z,56.22
2022-11-28T00:52:38.643Z,56.34
2022-11-28T00:55:41.045Z,56.44
2022-11-28T00:58:44.078Z,56.50
2022-11-28T01:01:46.147Z,56.53
2022-11-28T01:04:48.597Z,56.59
2022-11-28T01:07:50.880Z,56.59
2022-11-28T01:10:53.599Z,56.69
2022-11-28T01:13:58.103Z,56.76
2022-11-28T01:17:00.565Z,56.76
2022-11-28T01:20:05.945Z,56.83
2022-11-28T01:23:08.794Z,56.81
2022-11-28T01:26:16.417Z,56.92
2022-11-28T01:29:19.275Z,56.96
2022-11-28T01:32:21.366Z,57.01
2022-11-28T01:35:24.245Z,57.07
2022-11-28T01:38:27.407Z,57.11
2022-11-28T01:41:30.837Z,57.16
2022-11-28T01:44:34.609Z,57.21
2022-11-28T01:47:37.746Z,57.32
2022-11-28T01:50:40.716Z,57.34
2022-11-28T01:53:46.716Z,57.38
2022-11-28T01:56:57.689Z,57.44
2022-11-28T02:00:13.402Z,57.44
2022-11-28T02:03:23.033Z,57.47
2022-11-28T02:06:27.627Z,57.60
2022-11-28T02:09:30.136Z,57.53
2022-11-28T02:12:55.348Z,57.58
2022-11-28T02:16:00.808Z,57.69
2022-11-28T02:19:21.945Z,57.77
2022-11-28T02:22:47.628Z,57.77
2022-11-28T02:26:15.581Z,57.80
2022-11-28T02:29:38.996Z,57.85
2022-11-28T02:32:50.480Z,57.87
2022-11-28T02:36:04.185Z,57.87
2022-11-28T02:39:38.402Z,57.94
2022-11-28T02:43:02.019Z,57.99
2022-11-28T02:46:16.847Z,58.07
2022-11-28T02:49:46.717Z,58.06
2022-11-28T02:53:04.771Z,58.15
2022-11-28T02:56:10.793Z,58.21
2022-11-28T02:59:27.002Z,58.21
2022-11-28T03:02:33.342Z,58.23
2022-11-28T03:05:56.319Z,58.23
2022-11-28T03:09:13.722Z,58.26
2022-11-28T03:12:52.001Z,58.06
2022-11-28T03:16:08.410Z,58.41
2022-11-28T03:19:21.855Z,58.45
2022-11-28T03:22:50.388Z,58.58
2022-11-28T03:26:02.789Z,58.58
2022-11-28T03:29:15.340Z,58.81
2022-11-28T03:32:26.405Z,58.86
2022-11-28T03:35:36.411Z,58.67
2022-11-28T03:38:44.895Z,58.88
2022-11-28T03:42:00.315Z,58.75
2022-11-28T03:45:06.076Z,58.76
2022-11-28T03:48:18.145Z,58.83
2022-11-28T03:51:23.133Z,58.90
2022-11-28T03:54:43.031Z,58.77
2022-11-28T03:58:06.162Z,59.08
2022-11-28T04:01:17.101Z,59.12
2022-11-28T04:04:35.668Z,59.07
2022-11-28T04:08:02.190Z,59.01
2022-11-28T04:11:17.715Z,58.96
2022-11-28T04:14:27.209Z,58.98
2022-11-28T04:17:38.886Z,59.08
2022-11-28T04:20:55.899Z,59.14
2022-11-28T04:24:06.076Z,59.20
2022-11-28T04:27:11.301Z,59.36
2022-11-28T04:30:14.646Z,59.36
2022-11-28T04:33:22.576Z,59.34
2022-11-28T04:36:27.593Z,59.32
2022-11-28T04:39:32.838Z,59.27
2022-11-28T04:42:52.573Z,59.38
2022-11-28T04:46:01.681Z,59.37
2022-11-28T04:49:04.460Z,59.31
2022-11-28T04:52:37.576Z,59.32
2022-11-28T04:55:58.485Z,59.46
2022-11-28T04:59:01.631Z,59.33
2022-11-28T05:02:06.183Z,59.35
2022-11-28T05:05:24.439Z,59.54
2022-11-28T05:08:27.372Z,59.55
2022-11-28T05:11:29.921Z,59.48
2022-11-28T05:14:32.405Z,59.35
2022-11-28T05:17:40.488Z,59.62
2022-11-28T05:20:44.852Z,59.54
2022-11-28T05:23:47.127Z,59.49
2022-11-28T05:26:49.980Z,59.50
2022-11-28T05:29:53.951Z,59.47
2022-11-28T05:33:01.045Z,59.50
2022-11-28T05:36:12.929Z,59.50
2022-11-28T05:39:16.191Z,59.41
2022-11-28T05:42:18.514Z,59.49
2022-11-28T05:45:22.351Z,59.47
2022-11-28T05:48:25.560Z,59.51
2022-11-28T05:51:28.020Z,59.49
2022-11-28T05:54:30.834Z,59.44
2022-11-28T05:57:34.475Z,59.51
2022-11-28T06:00:36.899Z,59.46
2022-11-28T06:03:39.550Z,59.53
2022-11-28T06:06:41.618Z,59.48
2022-11-28T06:09:44.291Z,59.47
2022-11-28T06:12:46.471Z,59.53
2022-11-28T06:15:49.353Z,59.48
2022-11-28T06:18:56.940Z,59.51
2022-11-28T06:21:59.426Z,59.47
2022-11-28T06:25:02.402Z,59.41
2022-11-28T06:28:04.933Z,59.42
2022-11-28T06:31:16.202Z,59.41
2022-11-28T06:34:18.645Z,59.43
2022-11-28T06:37:20.932Z,59.46
2022-11-28T06:40:23.380Z,59.61
2022-11-28T06:43:26.195Z,59.64
2022-11-28T06:46:28.584Z,59.61
2022-11-28T06:49:31.180Z,59.59
2022-11-28T06:52:33.724Z,59.59
2022-11-28T06:55:36.636Z,59.67
2022-11-28T06:58:39.085Z,59.62
2022-11-28T07:01:41.251Z,59.66
2022-11-28T07:04:43.771Z,59.82
2022-11-28T07:07:54.207Z,59.97
2022-11-28T07:10:57.927Z,59.91
2022-11-28T07:14:02.581Z,60.01
2022-11-28T07:17:05.867Z,60.02
2022-11-28T07:20:08.920Z,59.99
2022-11-28T07:23:12.757Z,60.00
2022-11-28T07:26:18.075Z,60.27
2022-11-28T07:29:20.725Z,60.85
2022-11-28T07:32:23.197Z,61.08
2022-11-28T07:35:25.921Z,60.86
2022-11-28T07:38:28.534Z,60.63
2022-11-28T07:41:32.338Z,60.52
2022-11-28T07:44:35.920Z,60.17
2022-11-28T07:47:39.437Z,60.11
2022-11-28T07:50:41.626Z,60.17
2022-11-28T07:53:46.423Z,60.22
2022-11-28T08:00:13.224Z,60.23
2022-11-28T08:03:15.253Z,60.20
2022-11-28T08:06:20.249Z,60.14
2022-11-28T08:09:22.321Z,60.11
2022-11-28T08:12:24.917Z,60.56
2022-11-28T08:15:31.284Z,60.48
2022-11-28T08:18:35.020Z,60.31
2022-11-28T08:21:37.577Z,60.06
2022-11-28T08:24:40.139Z,59.85
2022-11-28T08:27:44.335Z,59.80
2022-11-28T08:30:47.363Z,59.72
2022-11-28T08:33:51.291Z,59.70
2022-11-28T08:36:54.377Z,59.62
2022-11-28T08:39:56.895Z,59.55
2022-11-28T08:42:59.484Z,59.76
2022-11-28T08:46:01.781Z,59.69
2022-11-28T08:49:04.761Z,59.56
2022-11-28T08:52:07.314Z,59.39
2022-11-28T08:55:10.666Z,59.36
2022-11-28T08:58:13.176Z,59.24
2022-11-28T09:01:19.151Z,59.26
2022-11-28T09:04:22.068Z,59.16
2022-11-28T09:07:24.692Z,58.99
2022-11-28T09:10:26.870Z,59.03
2022-11-28T09:13:29.726Z,59.14
2022-11-28T09:16:32.176Z,58.65
2022-11-28T09:19:34.797Z,58.65
2022-11-28T09:22:36.806Z,58.69
2022-11-28T09:25:39.736Z,58.65
2022-11-28T09:28:41.655Z,58.62
2022-11-28T09:31:47.525Z,58.56
2022-11-28T09:34:51.320Z,58.61
2022-11-28T09:37:53.604Z,58.42
2022-11-28T09:40:55.996Z,58.35
2022-11-28T09:44:18.750Z,58.30
2022-11-28T09:47:25.188Z,58.29
2022-11-28T09:50:34.268Z,58.18
2022-11-28T09:53:53.195Z,58.15
2022-11-28T09:56:57.195Z,57.92
2022-11-28T09:59:59.509Z,57.74
2022-11-28T10:03:21.952Z,57.69
2022-11-28T10:07:01.364Z,57.54
2022-11-28T10:10:23.653Z,57.50
2022-11-28T10:14:06.770Z,57.39
2022-11-28T10:17:25.653Z,57.31
2022-11-28T10:20:32.461Z,57.58
2022-11-28T10:23:43.703Z,57.58
2022-11-28T10:26:51.917Z,57.35
2022-11-28T10:30:05.596Z,57.33
2022-11-28T10:33:29.915Z,57.37
2022-11-28T10:36:59.378Z,57.28
2022-11-28T10:40:28.218Z,57.32
2022-11-28T10:43:40.899Z,57.22
2022-11-28T10:47:14.150Z,57.13
2022-11-28T10:50:37.224Z,57.10
2022-11-28T10:54:22.843Z,57.14
2022-11-28T10:57:35.512Z,57.22
2022-11-28T11:00:38.583Z,57.33
2022-11-28T11:03:42.438Z,57.40
2022-11-28T11:07:08.210Z,57.43
2022-11-28T11:10:24.015Z,57.45
2022-11-28T11:13:28.951Z,57.45
2022-11-28T11:16:51.784Z,57.51
2022-11-28T11:19:53.954Z,57.64
2022-11-28T11:22:59.181Z,58.17
2022-11-28T11:26:02.300Z,58.31
2022-11-28T11:29:05.778Z,58.29
2022-11-28T11:32:22.268Z,58.07
2022-11-28T11:35:28.982Z,58.16
2022-11-28T11:38:37.982Z,58.14
2022-11-28T11:41:45.272Z,57.88
2022-11-28T11:44:47.263Z,57.79
2022-11-28T11:47:50.095Z,57.67
2022-11-28T11:50:55.409Z,57.62
2022-11-28T11:54:13.427Z,57.56
2022-11-28T11:57:32.618Z,57.59
2022-11-28T12:00:41.705Z,57.63
2022-11-28T12:04:17.790Z,57.67
2022-11-28T12:07:50.404Z,57.70
2022-11-28T12:11:07.883Z,57.68
2022-11-28T12:14:32.266Z,57.69
2022-11-28T12:18:03.129Z,57.78
2022-11-28T12:21:37.635Z,57.69
2022-11-28T12:25:17.195Z,57.67
2022-11-28T12:28:50.848Z,57.69
2022-11-28T12:32:36.234Z,57.68
2022-11-28T12:35:44.630Z,57.73
2022-11-28T12:39:18.507Z,57.79
2022-11-28T12:42:47.095Z,57.79
2022-11-28T12:45:59.819Z,57.75
2022-11-28T12:49:26.180Z,57.68
2022-11-28T12:53:04.992Z,57.66
2022-11-28T12:56:49.592Z,57.77
2022-11-28T13:00:11.338Z,58.24
2022-11-28T13:03:33.386Z,58.50
2022-11-28T13:06:57.359Z,58.68
2022-11-28T13:10:11.546Z,58.46
2022-11-28T13:13:20.046Z,58.45
2022-11-28T13:16:44.159Z,58.43
2022-11-28T13:20:25.357Z,58.58
2022-11-28T13:23:40.687Z,58.35
2022-11-28T13:26:53.794Z,58.12
2022-11-28T13:30:23.200Z,58.19
2022-11-28T13:33:47.425Z,58.06
2022-11-28T13:40:27.514Z,57.76
2022-11-28T13:43:48.789Z,57.71
2022-11-28T13:46:51.652Z,57.75
2022-11-28T13:50:30.807Z,57.90
2022-11-28T13:53:34.144Z,57.62
2022-11-28T13:56:37.295Z,57.89
2022-11-28T13:59:39.725Z,57.88
2022-11-28T14:02:46.453Z,57.87
2022-11-28T14:05:56.454Z,57.80
2022-11-28T14:09:12.274Z,57.80
2022-11-28T15:13:28.591Z,58.73
2022-11-28T15:16:33.132Z,58.67
2022-11-28T15:19:48.524Z,58.65
2022-11-28T15:22:54.562Z,58.57
2022-11-28T15:26:00.424Z,58.55
2022-11-28T15:29:12.052Z,58.86
2022-11-28T15:32:16.990Z,59.14
2022-11-28T15:35:20.505Z,58.86
2022-11-28T15:38:24.009Z,58.74
2022-11-28T15:41:28.379Z,58.85
2022-11-28T15:44:33.226Z,58.79
2022-11-28T15:47:37.273Z,58.66
2022-11-28T15:50:52.148Z,58.60
2022-11-28T15:53:55.476Z,58.66
2022-11-28T15:57:00.309Z,58.57
2022-11-28T16:00:05.914Z,58.40
2022-11-28T16:03:25.138Z,58.38
2022-11-28T16:06:31.575Z,58.39
2022-11-28T16:09:36.530Z,58.49
2022-11-28T16:12:42.194Z,58.30
2022-11-28T16:15:50.428Z,58.39
2022-11-28T16:18:59.017Z,58.15
2022-11-28T16:22:07.589Z,58.05
2022-11-28T16:25:24.151Z,58.09
2022-11-28T16:28:35.930Z,58.12
2022-11-28T16:31:38.896Z,58.08
2022-11-28T16:34:53.355Z,58.08
2022-11-28T16:38:24.938Z,58.15
2022-11-28T16:41:31.148Z,58.25
2022-11-28T16:44:33.742Z,58.04
2022-11-28T16:47:37.871Z,57.91
2022-11-28T16:51:03.541Z,57.86
2022-11-28T16:55:10.224Z,57.85
2022-11-28T16:58:25.483Z,57.83
2022-11-28T17:01:38.033Z,57.80
2022-11-28T17:04:42.259Z,57.93
2022-11-28T17:07:50.801Z,57.60
2022-11-28T17:11:36.839Z,58.35
2022-11-28T17:14:40.021Z,58.85
2022-11-28T17:17:42.286Z,58.61
2022-11-28T17:20:48.199Z,58.50
2022-11-28T17:23:52.424Z,58.44
2022-11-28T17:26:55.823Z,58.51
2022-11-28T17:29:58.659Z,58.50
2022-11-28T17:33:02.362Z,58.61
2022-11-28T17:36:05.562Z,58.64
2022-11-28T17:39:08.389Z,58.61
2022-11-28T17:42:14.655Z,58.80
2022-11-28T17:45:22.191Z,59.05
2022-11-28T17:48:24.991Z,59.09
2022-11-28T17:51:28.397Z,59.21
2022-11-28T17:54:31.637Z,59.28
2022-11-28T17:57:36.732Z,59.29
2022-11-28T18:00:40.125Z,59.34
2022-11-28T18:03:42.832Z,59.30
2022-11-28T18:06:47.546Z,59.20
2022-11-28T18:09:50.465Z,59.13
2022-11-28T18:12:53.237Z,59.04
2022-11-28T18:15:56.705Z,59.01
2022-11-28T18:18:58.990Z,58.98
2022-11-28T18:22:01.640Z,58.95
2022-11-28T18:25:05.511Z,58.96
2022-11-28T18:28:08.887Z,58.93
2022-11-28T18:31:31.507Z,58.96
2022-11-28T18:34:35.495Z,58.98
2022-11-28T18:37:40.818Z,58.99
2022-11-28T18:40:45.189Z,59.03
2022-11-28T18:43:47.663Z,59.02
2022-11-28T18:46:51.053Z,59.05
2022-11-28T18:49:53.338Z,59.02
2022-11-28T18:52:57.488Z,59.05
2022-11-28T18:56:06.129Z,59.12
2022-11-28T18:59:11.204Z,59.17
2022-11-28T19:02:16.679Z,59.24
2022-11-28T19:05:19.636Z,59.20
2022-11-28T19:08:23.328Z,59.23
2022-11-28T19:11:31.375Z,59.19
2022-11-28T19:14:34.573Z,59.27
2022-11-28T19:17:38.537Z,59.24
2022-11-28T19:20:43.709Z,59.27
2022-11-28T19:23:48.765Z,59.28
2022-11-28T19:26:53.233Z,59.46
2022-11-28T19:29:58.917Z,59.39
2022-11-28T19:33:04.466Z,59.36
2022-11-28T19:36:13.693Z,59.31
2022-11-28T19:39:20.598Z,59.34
2022-11-28T19:42:29.118Z,59.35
2022-11-28T19:45:32.501Z,59.40
2022-11-28T19:52:54.915Z,59.59
2022-11-28T19:56:04.241Z,59.58
2022-11-28T19:59:07.980Z,59.51
2022-11-28T20:02:10.996Z,59.55
2022-11-28T20:05:14.327Z,59.55
2022-11-28T20:08:17.770Z,59.54
2022-11-28T20:11:23.895Z,59.55
2022-11-28T20:14:31.628Z,60.34
2022-11-28T20:17:36.765Z,60.56
2022-11-28T20:20:40.486Z,60.28
2022-11-28T20:23:49.058Z,60.24
2022-11-28T20:26:52.104Z,60.01
2022-11-28T20:29:56.267Z,60.06
2022-11-28T20:32:59.722Z,60.13
2022-11-28T20:36:14.734Z,60.03
2022-11-28T20:39:18.285Z,59.86
2022-11-28T20:42:23.209Z,60.00
2022-11-28T20:45:29.537Z,60.01
2022-11-28T20:48:36.595Z,59.99
2022-11-28T20:51:40.766Z,60.01
2022-11-28T20:54:44.251Z,60.01
2022-11-28T20:57:47.634Z,59.95
2022-11-28T21:00:52.629Z,59.98
2022-11-28T21:03:56.229Z,59.97
2022-11-28T21:07:00.509Z,60.00
2022-11-28T21:10:05.159Z,60.02
2022-11-28T21:13:08.841Z,60.32
2022-11-28T21:16:14.941Z,60.26
2022-11-28T21:19:18.022Z,60.32
2022-11-28T21:22:20.344Z,60.23
2022-11-28T21:25:23.853Z,60.34
2022-11-28T21:28:26.071Z,60.36
2022-11-28T21:31:31.942Z,60.27
2022-11-28T21:34:34.245Z,60.25
2022-11-28T21:37:37.691Z,60.21
2022-11-28T21:40:40.713Z,60.18
2022-11-28T21:43:43.388Z,60.26
2022-11-28T21:46:45.616Z,60.20
2022-11-28T21:49:48.852Z,60.33
2022-11-28T21:52:51.610Z,60.08
2022-11-28T21:55:55.711Z,60.22
2022-11-28T21:58:58.889Z,60.28
2022-11-28T22:02:08.560Z,60.28
2022-11-28T22:05:15.045Z,60.25
2022-11-28T22:08:19.821Z,60.24
2022-11-28T22:11:25.681Z,60.33
2022-11-28T22:14:36.509Z,60.32
2022-11-28T22:17:39.848Z,60.31
2022-11-28T22:20:45.784Z,60.31
2022-11-28T22:23:51.414Z,60.36
2022-11-28T22:26:55.142Z,60.45
2022-11-28T22:30:01.649Z,60.43
2022-11-28T22:33:04.563Z,61.18
2022-11-28T22:36:11.045Z,61.06
2022-11-28T22:39:13.984Z,60.77
2022-11-28T22:42:18.479Z,60.65
2022-11-28T22:45:20.930Z,60.54
2022-11-28T22:48:23.108Z,60.55
2022-11-28T22:51:27.107Z,60.46
2022-11-28T22:54:29.370Z,60.31
2022-11-28T22:57:32.200Z,60.24
2022-11-28T23:00:34.379Z,60.17
2022-11-28T23:03:37.821Z,60.16
2022-11-28T23:06:43.087Z,60.03
2022-11-28T23:09:46.064Z,60.02
2022-11-28T23:12:49.106Z,60.19
2022-11-28T23:15:53.066Z,60.36
2022-11-28T23:18:57.810Z,59.92
2022-11-28T23:22:00.431Z,59.55
2022-11-28T23:25:02.871Z,60.43
2022-11-28T23:28:06.413Z,59.94
2022-11-28T23:31:13.439Z,59.72
2022-11-28T23:34:16.515Z,59.70
2022-11-28T23:37:18.893Z,59.71
2022-11-28T23:40:21.470Z,59.74
2022-11-28T23:43:23.563Z,59.58
2022-11-28T23:46:27.580Z,59.45
2022-11-28T23:49:29.797Z,59.44
2022-11-28T23:52:33.319Z,59.34
2022-11-28T23:55:36.888Z,59.46
2022-11-28T23:58:39.764Z,59.37
